sensor_id;sensor_type;location;lat;lon;timestamp;pressure;altitude;pressure_sealevel;temperature;humidity
21276;BME280;36472;52.170;20.884;2022-08-21T00:02:14;100077.75;;;22.41;76.17
21276;BME280;36472;52.170;20.884;2022-08-21T00:04:44;100076.44;;;22.37;76.38
21276;BME280;36472;52.170;20.884;2022-08-21T00:07:25;100080.06;;;22.29;76.67
21276;BME280;36472;52.170;20.884;2022-08-21T00:09:55;100081.19;;;22.27;76.88
21276;BME280;36472;52.170;20.884;2022-08-21T00:12:23;100095.53;;;22.19;77.48
21276;BME280;36472;52.170;20.884;2022-08-21T00:14:53;100096.25;;;22.13;77.68
21276;BME280;36472;52.170;20.884;2022-08-21T00:17:26;100091.72;;;22.13;78.20
21276;BME280;36472;52.170;20.884;2022-08-21T00:19:54;100090.59;;;22.08;78.18
21276;BME280;36472;52.170;20.884;2022-08-21T00:22:23;100086.66;;;22.03;78.78
21276;BME280;36472;52.170;20.884;2022-08-21T00:24:52;100085.31;;;21.99;78.95
21276;BME280;36472;52.170;20.884;2022-08-21T00:27:21;100086.06;;;21.93;79.33
21276;BME280;36472;52.170;20.884;2022-08-21T00:29:49;100087.78;;;21.86;79.63
21276;BME280;36472;52.170;20.884;2022-08-21T00:32:23;100089.00;;;21.83;80.25
21276;BME280;36472;52.170;20.884;2022-08-21T00:34:54;100084.81;;;21.81;80.27
21276;BME280;36472;52.170;20.884;2022-08-21T00:37:24;100081.88;;;21.76;80.60
21276;BME280;36472;52.170;20.884;2022-08-21T00:39:52;100075.06;;;21.73;80.66
21276;BME280;36472;52.170;20.884;2022-08-21T00:42:21;100078.09;;;21.70;81.10
21276;BME280;36472;52.170;20.884;2022-08-21T00:44:50;100074.94;;;21.66;81.40
21276;BME280;36472;52.170;20.884;2022-08-21T00:47:19;100064.78;;;21.62;81.59
21276;BME280;36472;52.170;20.884;2022-08-21T00:49:48;100069.19;;;21.55;81.92
21276;BME280;36472;52.170;20.884;2022-08-21T00:52:25;100069.19;;;21.55;82.08
21276;BME280;36472;52.170;20.884;2022-08-21T00:54:56;100057.69;;;21.46;82.11
21276;BME280;36472;52.170;20.884;2022-08-21T00:57:32;100056.19;;;21.43;82.35
21276;BME280;36472;52.170;20.884;2022-08-21T01:00:13;100058.41;;;21.40;82.88
21276;BME280;36472;52.170;20.884;2022-08-21T01:02:43;100059.59;;;21.37;82.83
21276;BME280;36472;52.170;20.884;2022-08-21T01:05:13;100054.09;;;21.39;82.95
21276;BME280;36472;52.170;20.884;2022-08-21T01:07:43;100048.75;;;21.39;83.34
21276;BME280;36472;52.170;20.884;2022-08-21T01:10:13;100047.41;;;21.35;83.58
21276;BME280;36472;52.170;20.884;2022-08-21T01:12:52;100054.16;;;21.30;83.66
21276;BME280;36472;52.170;20.884;2022-08-21T01:15:28;100051.34;;;21.24;83.73
21276;BME280;36472;52.170;20.884;2022-08-21T01:17:58;100054.03;;;21.24;84.10
21276;BME280;36472;52.170;20.884;2022-08-21T01:20:27;100052.19;;;21.24;84.67
21276;BME280;36472;52.170;20.884;2022-08-21T01:23:01;100049.69;;;21.23;84.54
21276;BME280;36472;52.170;20.884;2022-08-21T01:25:31;100048.22;;;21.20;84.49
21276;BME280;36472;52.170;20.884;2022-08-21T01:28:09;100056.81;;;21.30;84.37
21276;BME280;36472;52.170;20.884;2022-08-21T01:30:42;100046.00;;;21.24;85.01
21276;BME280;36472;52.170;20.884;2022-08-21T01:33:11;100053.78;;;21.34;84.03
21276;BME280;36472;52.170;20.884;2022-08-21T01:35:40;100054.16;;;21.30;84.26
21276;BME280;36472;52.170;20.884;2022-08-21T01:38:10;100038.63;;;21.26;84.75
21276;BME280;36472;52.170;20.884;2022-08-21T01:40:39;100045.88;;;21.17;85.39
21276;BME280;36472;52.170;20.884;2022-08-21T01:43:08;100040.13;;;21.05;85.94
21276;BME280;36472;52.170;20.884;2022-08-21T01:45:36;100037.38;;;20.90;87.23
21276;BME280;36472;52.170;20.884;2022-08-21T01:48:06;100026.47;;;20.77;88.32
21276;BME280;36472;52.170;20.884;2022-08-21T01:50:34;100026.50;;;20.69;88.34
21276;BME280;36472;52.170;20.884;2022-08-21T01:53:04;100020.84;;;20.64;88.82
21276;BME280;36472;52.170;20.884;2022-08-21T01:55:34;100023.34;;;20.65;88.87
21276;BME280;36472;52.170;20.884;2022-08-21T01:58:03;100021.97;;;20.61;89.17
21276;BME280;36472;52.170;20.884;2022-08-21T02:00:31;100016.97;;;20.58;89.54
21276;BME280;36472;52.170;20.884;2022-08-21T02:03:00;100011.00;;;20.56;89.79
21276;BME280;36472;52.170;20.884;2022-08-21T02:05:29;100017.69;;;20.52;89.77
21276;BME280;36472;52.170;20.884;2022-08-21T02:07:58;100017.72;;;20.44;90.36
21276;BME280;36472;52.170;20.884;2022-08-21T02:10:30;100021.94;;;20.38;90.87
21276;BME280;36472;52.170;20.884;2022-08-21T02:13:01;100017.94;;;20.34;91.33
21276;BME280;36472;52.170;20.884;2022-08-21T02:15:30;100023.44;;;20.32;91.42
21276;BME280;36472;52.170;20.884;2022-08-21T02:18:01;100015.25;;;20.34;91.61
21276;BME280;36472;52.170;20.884;2022-08-21T02:20:35;100010.94;;;20.33;91.42
21276;BME280;36472;52.170;20.884;2022-08-21T02:23:07;100006.13;;;20.28;91.76
21276;BME280;36472;52.170;20.884;2022-08-21T02:25:36;100006.81;;;20.22;92.05
21276;BME280;36472;52.170;20.884;2022-08-21T02:28:10;100011.50;;;20.20;92.61
21276;BME280;36472;52.170;20.884;2022-08-21T02:30:43;100001.69;;;20.12;92.79
21276;BME280;36472;52.170;20.884;2022-08-21T02:33:13;100002.19;;;20.16;93.02
21276;BME280;36472;52.170;20.884;2022-08-21T02:35:45;100005.50;;;20.18;93.07
21276;BME280;36472;52.170;20.884;2022-08-21T02:38:17;99996.66;;;20.17;92.65
21276;BME280;36472;52.170;20.884;2022-08-21T02:40:50;100004.19;;;20.14;92.72
21276;BME280;36472;52.170;20.884;2022-08-21T02:43:23;99998.72;;;20.07;93.07
21276;BME280;36472;52.170;20.884;2022-08-21T02:45:54;100004.38;;;20.04;93.42
21276;BME280;36472;52.170;20.884;2022-08-21T02:48:28;99996.53;;;20.03;93.66
21276;BME280;36472;52.170;20.884;2022-08-21T02:51:01;99996.72;;;20.01;93.78
21276;BME280;36472;52.170;20.884;2022-08-21T02:53:32;99989.91;;;19.98;93.95
21276;BME280;36472;52.170;20.884;2022-08-21T02:56:05;99990.72;;;19.99;93.89
21276;BME280;36472;52.170;20.884;2022-08-21T02:58:40;99986.56;;;19.96;94.12
21276;BME280;36472;52.170;20.884;2022-08-21T03:01:10;99986.91;;;19.93;94.10
21276;BME280;36472;52.170;20.884;2022-08-21T03:03:43;99984.06;;;19.95;93.69
21276;BME280;36472;52.170;20.884;2022-08-21T03:06:14;99986.56;;;19.96;93.84
21276;BME280;36472;52.170;20.884;2022-08-21T03:08:43;99983.22;;;19.94;93.51
21276;BME280;36472;52.170;20.884;2022-08-21T03:11:14;99984.91;;;19.95;93.80
21276;BME280;36472;52.170;20.884;2022-08-21T03:13:44;99978.72;;;19.95;93.72
21276;BME280;36472;52.170;20.884;2022-08-21T03:16:13;99975.41;;;19.93;93.70
21276;BME280;36472;52.170;20.884;2022-08-21T03:18:42;99973.06;;;19.90;93.58
21276;BME280;36472;52.170;20.884;2022-08-21T03:21:10;99979.56;;;19.95;93.54
21276;BME280;36472;52.170;20.884;2022-08-21T03:23:40;99983.41;;;19.93;93.72
21276;BME280;36472;52.170;20.884;2022-08-21T03:26:11;99981.75;;;19.92;93.70
21276;BME280;36472;52.170;20.884;2022-08-21T03:28:40;99979.41;;;19.97;93.46
21276;BME280;36472;52.170;20.884;2022-08-21T03:31:10;99979.22;;;19.98;93.51
21276;BME280;36472;52.170;20.884;2022-08-21T03:33:39;99970.56;;;19.96;93.21
21276;BME280;36472;52.170;20.884;2022-08-21T03:36:09;99970.22;;;19.99;93.14
21276;BME280;36472;52.170;20.884;2022-08-21T03:38:38;99978.38;;;19.98;93.17
21276;BME280;36472;52.170;20.884;2022-08-21T03:41:08;99975.22;;;19.94;93.34
21276;BME280;36472;52.170;20.884;2022-08-21T03:43:37;99971.09;;;19.92;93.59
21276;BME280;36472;52.170;20.884;2022-08-21T03:46:06;99978.06;;;19.93;93.72
21276;BME280;36472;52.170;20.884;2022-08-21T03:48:38;99980.72;;;19.93;93.77
21276;BME280;36472;52.170;20.884;2022-08-21T03:51:07;99989.38;;;19.95;94.14
21276;BME280;36472;52.170;20.884;2022-08-21T03:53:36;99980.56;;;19.94;93.49
21276;BME280;36472;52.170;20.884;2022-08-21T03:56:06;99981.06;;;19.98;93.99
21276;BME280;36472;52.170;20.884;2022-08-21T03:58:35;99988.06;;;19.99;93.81
21276;BME280;36472;52.170;20.884;2022-08-21T04:01:05;99987.88;;;20.01;93.70
21276;BME280;36472;52.170;20.884;2022-08-21T04:03:37;99985.38;;;20.07;93.36
21276;BME280;36472;52.170;20.884;2022-08-21T04:06:07;99991.34;;;20.09;93.24
21276;BME280;36472;52.170;20.884;2022-08-21T04:08:36;99997.34;;;20.11;92.95
21276;BME280;36472;52.170;20.884;2022-08-21T04:11:05;99987.50;;;20.12;93.28
21276;BME280;36472;52.170;20.884;2022-08-21T04:13:34;99995.00;;;20.16;93.20
21276;BME280;36472;52.170;20.884;2022-08-21T04:16:11;99985.47;;;20.22;93.27
21276;BME280;36472;52.170;20.884;2022-08-21T04:18:42;99990.28;;;20.27;92.60
21276;BME280;36472;52.170;20.884;2022-08-21T04:21:11;99994.63;;;20.28;92.24
21276;BME280;36472;52.170;20.884;2022-08-21T04:23:40;99996.28;;;20.29;92.01
21276;BME280;36472;52.170;20.884;2022-08-21T04:26:09;99990.78;;;20.30;91.68
21276;BME280;36472;52.170;20.884;2022-08-21T04:28:38;99985.91;;;20.34;92.56
21276;BME280;36472;52.170;20.884;2022-08-21T04:31:08;99983.22;;;20.42;92.85
21276;BME280;36472;52.170;20.884;2022-08-21T04:33:37;99985.03;;;20.50;92.00
21276;BME280;36472;52.170;20.884;2022-08-21T04:36:25;99980.66;;;20.57;92.07
21276;BME280;36472;52.170;20.884;2022-08-21T04:38:54;99986.47;;;20.61;91.14
21276;BME280;36472;52.170;20.884;2022-08-21T04:41:23;99983.47;;;20.64;91.10
21276;BME280;36472;52.170;20.884;2022-08-21T04:43:54;99985.81;;;20.59;90.37
21276;BME280;36472;52.170;20.884;2022-08-21T04:46:23;99985.59;;;20.68;90.28
21276;BME280;36472;52.170;20.884;2022-08-21T04:48:52;99993.97;;;20.65;89.49
21276;BME280;36472;52.170;20.884;2022-08-21T04:51:28;99988.25;;;20.68;89.54
21276;BME280;36472;52.170;20.884;2022-08-21T04:54:05;99986.91;;;20.72;89.32
21276;BME280;36472;52.170;20.884;2022-08-21T04:56:40;99983.34;;;20.80;89.33
21276;BME280;36472;52.170;20.884;2022-08-21T04:59:15;99991.38;;;20.80;88.75
21276;BME280;36472;52.170;20.884;2022-08-21T05:01:45;99991.06;;;20.75;88.64
21276;BME280;36472;52.170;20.884;2022-08-21T05:04:21;99984.91;;;20.74;88.86
21276;BME280;36472;52.170;20.884;2022-08-21T05:06:54;99988.94;;;20.93;88.40
21276;BME280;36472;52.170;20.884;2022-08-21T05:09:28;99988.94;;;20.93;87.72
21276;BME280;36472;52.170;20.884;2022-08-21T05:11:57;99989.06;;;21.00;88.02
21276;BME280;36472;52.170;20.884;2022-08-21T05:14:26;99992.03;;;21.05;86.62
21276;BME280;36472;52.170;20.884;2022-08-21T05:16:55;99991.50;;;21.10;86.26
21276;BME280;36472;52.170;20.884;2022-08-21T05:19:23;99979.66;;;21.27;85.98
21276;BME280;36472;52.170;20.884;2022-08-21T05:21:54;99991.59;;;21.40;85.38
21276;BME280;36472;52.170;20.884;2022-08-21T05:24:23;99984.63;;;21.54;85.95
21276;BME280;36472;52.170;20.884;2022-08-21T05:26:52;99983.56;;;21.63;84.79
21276;BME280;36472;52.170;20.884;2022-08-21T05:29:21;99992.41;;;21.63;84.05
21276;BME280;36472;52.170;20.884;2022-08-21T05:31:51;99994.72;;;21.66;84.38
21276;BME280;36472;52.170;20.884;2022-08-21T05:34:22;99996.81;;;21.56;84.15
21276;BME280;36472;52.170;20.884;2022-08-21T05:36:51;99987.06;;;21.63;85.30
21276;BME280;36472;52.170;20.884;2022-08-21T05:39:21;99992.13;;;21.58;84.70
21276;BME280;36472;52.170;20.884;2022-08-21T05:41:49;99996.91;;;21.48;83.89
21276;BME280;36472;52.170;20.884;2022-08-21T05:44:18;100003.91;;;21.49;84.89
21276;BME280;36472;52.170;20.884;2022-08-21T05:46:49;100001.75;;;21.44;84.57
21276;BME280;36472;52.170;20.884;2022-08-21T05:49:17;100004.78;;;21.41;84.86
21276;BME280;36472;52.170;20.884;2022-08-21T05:51:46;100005.41;;;21.43;84.76
21276;BME280;36472;52.170;20.884;2022-08-21T05:54:15;100000.50;;;21.55;84.86
21276;BME280;36472;52.170;20.884;2022-08-21T05:56:45;100001.63;;;21.76;84.88
21276;BME280;36472;52.170;20.884;2022-08-21T05:59:14;99994.19;;;21.86;83.48
21276;BME280;36472;52.170;20.884;2022-08-21T06:01:43;99994.19;;;22.01;82.31
21276;BME280;36472;52.170;20.884;2022-08-21T06:04:13;99994.81;;;22.18;82.30
21276;BME280;36472;52.170;20.884;2022-08-21T06:06:42;99989.75;;;22.23;80.86
21276;BME280;36472;52.170;20.884;2022-08-21T06:09:10;99988.84;;;22.16;81.75
21276;BME280;36472;52.170;20.884;2022-08-21T06:11:39;99998.53;;;22.32;80.20
21276;BME280;36472;52.170;20.884;2022-08-21T06:14:09;99994.94;;;22.39;80.01
21276;BME280;36472;52.170;20.884;2022-08-21T06:16:38;100005.84;;;22.38;80.06
21276;BME280;36472;52.170;20.884;2022-08-21T06:19:07;99998.06;;;22.43;79.64
21276;BME280;36472;52.170;20.884;2022-08-21T06:21:36;100002.56;;;22.57;79.02
21276;BME280;36472;52.170;20.884;2022-08-21T06:24:05;100010.03;;;22.62;79.38
21276;BME280;36472;52.170;20.884;2022-08-21T06:26:35;100016.53;;;22.74;78.59
21276;BME280;36472;52.170;20.884;2022-08-21T06:29:04;100016.00;;;22.79;77.89
21276;BME280;36472;52.170;20.884;2022-08-21T06:31:34;100016.84;;;23.01;77.17
21276;BME280;36472;52.170;20.884;2022-08-21T06:34:04;100026.56;;;23.24;76.39
21276;BME280;36472;52.170;20.884;2022-08-21T06:36:33;100018.41;;;23.10;76.58
21276;BME280;36472;52.170;20.884;2022-08-21T06:39:02;100023.25;;;23.22;77.20
21276;BME280;36472;52.170;20.884;2022-08-21T06:41:50;100033.00;;;23.29;76.32
21276;BME280;36472;52.170;20.884;2022-08-21T06:44:27;100036.03;;;23.20;76.59
21276;BME280;36472;52.170;20.884;2022-08-21T06:46:57;100041.50;;;23.11;77.48
21276;BME280;36472;52.170;20.884;2022-08-21T06:49:26;100029.00;;;23.19;76.98
21276;BME280;36472;52.170;20.884;2022-08-21T06:51:55;100033.69;;;23.38;76.96
21276;BME280;36472;52.170;20.884;2022-08-21T06:54:24;100033.19;;;23.49;76.26
21276;BME280;36472;52.170;20.884;2022-08-21T06:56:52;100037.38;;;23.59;74.90
21276;BME280;36472;52.170;20.884;2022-08-21T06:59:21;100032.28;;;23.92;74.27
21276;BME280;36472;52.170;20.884;2022-08-21T07:01:50;100040.53;;;24.25;72.48
21276;BME280;36472;52.170;20.884;2022-08-21T07:04:20;100044.69;;;24.70;70.08
21276;BME280;36472;52.170;20.884;2022-08-21T07:06:48;100045.78;;;24.95;68.61
21276;BME280;36472;52.170;20.884;2022-08-21T07:09:17;100035.75;;;25.44;66.21
21276;BME280;36472;52.170;20.884;2022-08-21T07:11:55;100029.56;;;25.50;66.57
21276;BME280;36472;52.170;20.884;2022-08-21T07:14:24;100029.97;;;25.47;66.48
21276;BME280;36472;52.170;20.884;2022-08-21T07:16:52;100028.72;;;25.70;65.38
21276;BME280;36472;52.170;20.884;2022-08-21T07:19:22;100020.25;;;26.52;62.62
21276;BME280;36472;52.170;20.884;2022-08-21T07:21:59;100021.91;;;26.98;61.35
21276;BME280;36472;52.170;20.884;2022-08-21T07:24:29;100024.88;;;26.83;61.54
21276;BME280;36472;52.170;20.884;2022-08-21T07:26:58;100021.81;;;26.73;61.64
21276;BME280;36472;52.170;20.884;2022-08-21T07:29:26;100020.88;;;26.99;60.74
21276;BME280;36472;52.170;20.884;2022-08-21T07:31:55;100016.53;;;27.23;59.30
21276;BME280;36472;52.170;20.884;2022-08-21T07:34:25;100016.44;;;27.61;57.26
21276;BME280;36472;52.170;20.884;2022-08-21T07:36:54;100007.75;;;28.59;54.89
21276;BME280;36472;52.170;20.884;2022-08-21T07:39:25;100011.03;;;29.33;52.39
21276;BME280;36472;52.170;20.884;2022-08-21T07:41:53;100009.94;;;30.29;49.92
21276;BME280;36472;52.170;20.884;2022-08-21T07:44:22;100007.13;;;30.64;47.53
21276;BME280;36472;52.170;20.884;2022-08-21T07:46:51;100004.19;;;30.66;48.75
21276;BME280;36472;52.170;20.884;2022-08-21T07:49:19;100002.66;;;30.99;46.96
21276;BME280;36472;52.170;20.884;2022-08-21T07:51:49;100002.16;;;31.69;46.22
21276;BME280;36472;52.170;20.884;2022-08-21T07:54:19;99999.97;;;31.88;45.32
21276;BME280;36472;52.170;20.884;2022-08-21T07:57:00;100001.72;;;32.17;43.68
21276;BME280;36472;52.170;20.884;2022-08-21T07:59:29;99993.44;;;32.78;43.62
21276;BME280;36472;52.170;20.884;2022-08-21T08:01:58;99994.78;;;32.75;43.36
21276;BME280;36472;52.170;20.884;2022-08-21T08:04:27;99987.78;;;32.85;43.21
21276;BME280;36472;52.170;20.884;2022-08-21T08:06:56;99995.34;;;33.42;42.47
21276;BME280;36472;52.170;20.884;2022-08-21T08:09:25;99989.22;;;34.10;40.19
21276;BME280;36472;52.170;20.884;2022-08-21T08:11:54;99989.91;;;33.85;41.27
21276;BME280;36472;52.170;20.884;2022-08-21T08:14:23;99988.22;;;33.36;40.96
21276;BME280;36472;52.170;20.884;2022-08-21T08:16:58;99985.16;;;33.65;40.45
21276;BME280;36472;52.170;20.884;2022-08-21T08:19:26;99990.09;;;32.98;41.35
21276;BME280;36472;52.170;20.884;2022-08-21T08:21:56;99979.88;;;32.83;42.20
21276;BME280;36472;52.170;20.884;2022-08-21T08:24:25;99987.38;;;33.30;41.55
21276;BME280;36472;52.170;20.884;2022-08-21T08:26:54;99987.66;;;33.02;41.14
21276;BME280;36472;52.170;20.884;2022-08-21T08:29:24;99995.13;;;33.91;40.45
21276;BME280;36472;52.170;20.884;2022-08-21T08:31:54;99983.72;;;33.14;41.08
21276;BME280;36472;52.170;20.884;2022-08-21T08:34:22;99988.81;;;33.81;40.19
21276;BME280;36472;52.170;20.884;2022-08-21T08:36:52;99995.94;;;34.65;38.88
21276;BME280;36472;52.170;20.884;2022-08-21T08:39:25;99989.25;;;32.97;42.17
21276;BME280;36472;52.170;20.884;2022-08-21T08:42:06;99982.56;;;33.10;40.32
21276;BME280;36472;52.170;20.884;2022-08-21T08:45:00;99983.75;;;33.20;40.48
21276;BME280;36472;52.170;20.884;2022-08-21T08:47:32;99974.38;;;33.10;41.13
21276;BME280;36472;52.170;20.884;2022-08-21T08:50:07;99979.84;;;33.85;40.45
21276;BME280;36472;52.170;20.884;2022-08-21T08:52:47;99974.31;;;33.70;40.36
21276;BME280;36472;52.170;20.884;2022-08-21T08:55:33;99977.13;;;33.48;39.40
21276;BME280;36472;52.170;20.884;2022-08-21T08:58:03;99978.50;;;34.61;38.14
21276;BME280;36472;52.170;20.884;2022-08-21T09:00:33;99992.72;;;34.00;38.58
21276;BME280;36472;52.170;20.884;2022-08-21T09:03:03;99991.69;;;33.64;38.14
21276;BME280;36472;52.170;20.884;2022-08-21T09:05:43;99979.09;;;33.52;39.47
21276;BME280;36472;52.170;20.884;2022-08-21T09:08:41;99982.31;;;34.60;37.88
21276;BME280;36472;52.170;20.884;2022-08-21T09:11:28;99984.94;;;33.34;39.66
21276;BME280;36472;52.170;20.884;2022-08-21T09:14:10;99985.34;;;33.53;39.92
21276;BME280;36472;52.170;20.884;2022-08-21T09:16:50;99985.22;;;33.75;39.08
21276;BME280;36472;52.170;20.884;2022-08-21T09:19:39;99988.53;;;33.77;38.82
21276;BME280;36472;52.170;20.884;2022-08-21T09:22:24;99984.66;;;32.04;42.23
21276;BME280;36472;52.170;20.884;2022-08-21T09:25:08;99987.34;;;32.98;41.05
21276;BME280;36472;52.170;20.884;2022-08-21T09:27:40;99971.41;;;32.79;40.05
21276;BME280;36472;52.170;20.884;2022-08-21T09:30:10;99971.94;;;30.52;44.05
21276;BME280;36472;52.170;20.884;2022-08-21T09:32:40;99969.47;;;30.51;45.09
21276;BME280;36472;52.170;20.884;2022-08-21T09:35:13;99977.53;;;31.98;42.74
21276;BME280;36472;52.170;20.884;2022-08-21T09:37:52;99974.53;;;30.76;46.50
21276;BME280;36472;52.170;20.884;2022-08-21T09:40:35;99979.28;;;30.40;46.72
21276;BME280;36472;52.170;20.884;2022-08-21T09:43:17;99955.47;;;30.42;46.71
21276;BME280;36472;52.170;20.884;2022-08-21T09:45:49;99967.69;;;32.36;42.60
21276;BME280;36472;52.170;20.884;2022-08-21T09:48:29;99967.91;;;35.21;36.00
21276;BME280;36472;52.170;20.884;2022-08-21T09:51:10;99970.78;;;33.32;39.86
21276;BME280;36472;52.170;20.884;2022-08-21T09:53:45;99970.78;;;34.33;37.49
21276;BME280;36472;52.170;20.884;2022-08-21T09:56:26;99974.13;;;33.44;39.64
21276;BME280;36472;52.170;20.884;2022-08-21T09:59:24;99963.66;;;33.26;40.39
21276;BME280;36472;52.170;20.884;2022-08-21T10:01:54;99959.22;;;32.60;40.14
21276;BME280;36472;52.170;20.884;2022-08-21T10:04:30;99961.44;;;33.60;38.87
21276;BME280;36472;52.170;20.884;2022-08-21T10:07:10;99955.06;;;34.76;36.53
21276;BME280;36472;52.170;20.884;2022-08-21T10:09:41;99957.56;;;33.99;38.08
21276;BME280;36472;52.170;20.884;2022-08-21T10:12:24;99958.34;;;35.39;35.66
21276;BME280;36472;52.170;20.884;2022-08-21T10:15:07;99961.63;;;38.32;30.15
21276;BME280;36472;52.170;20.884;2022-08-21T10:17:59;99952.88;;;35.45;35.28
21276;BME280;36472;52.170;20.884;2022-08-21T10:20:40;99953.72;;;35.25;35.32
21276;BME280;36472;52.170;20.884;2022-08-21T10:23:33;99949.59;;;34.76;36.31
21276;BME280;36472;52.170;20.884;2022-08-21T10:26:16;99950.22;;;36.05;34.25
21276;BME280;36472;52.170;20.884;2022-08-21T10:29:02;99945.69;;;37.14;32.38
21276;BME280;36472;52.170;20.884;2022-08-21T10:31:49;99954.19;;;35.73;35.00
21276;BME280;36472;52.170;20.884;2022-08-21T10:34:42;99954.34;;;36.52;33.06
21276;BME280;36472;52.170;20.884;2022-08-21T10:37:30;99938.41;;;36.69;32.90
21276;BME280;36472;52.170;20.884;2022-08-21T10:40:15;99953.00;;;35.94;33.76
21276;BME280;36472;52.170;20.884;2022-08-21T10:43:09;99950.38;;;33.72;37.13
21276;BME280;36472;52.170;20.884;2022-08-21T10:45:54;99939.59;;;32.80;38.95
21276;BME280;36472;52.170;20.884;2022-08-21T10:48:33;99946.88;;;31.25;42.06
21276;BME280;36472;52.170;20.884;2022-08-21T10:51:10;99940.63;;;30.90;43.52
21276;BME280;36472;52.170;20.884;2022-08-21T10:54:00;99941.97;;;31.78;41.21
21276;BME280;36472;52.170;20.884;2022-08-21T10:56:37;99946.56;;;31.38;42.07
21276;BME280;36472;52.170;20.884;2022-08-21T10:59:26;99938.09;;;31.74;40.99
21276;BME280;36472;52.170;20.884;2022-08-21T11:02:15;99931.78;;;32.89;38.14
21276;BME280;36472;52.170;20.884;2022-08-21T11:04:56;99927.69;;;33.24;37.83
21276;BME280;36472;52.170;20.884;2022-08-21T11:07:34;99935.34;;;32.94;39.50
21276;BME280;36472;52.170;20.884;2022-08-21T11:10:13;99938.63;;;31.71;40.74
21276;BME280;36472;52.170;20.884;2022-08-21T11:12:52;99929.19;;;31.22;42.40
21276;BME280;36472;52.170;20.884;2022-08-21T11:15:40;99929.69;;;31.75;41.11
21276;BME280;36472;52.170;20.884;2022-08-21T11:18:22;99927.72;;;31.31;42.65
21276;BME280;36472;52.170;20.884;2022-08-21T11:21:06;99922.63;;;30.27;44.53
21276;BME280;36472;52.170;20.884;2022-08-21T11:23:44;99927.97;;;29.81;45.87
21276;BME280;36472;52.170;20.884;2022-08-21T11:26:25;99920.22;;;30.42;43.37
21276;BME280;36472;52.170;20.884;2022-08-21T11:29:10;99927.34;;;29.08;46.44
21276;BME280;36472;52.170;20.884;2022-08-21T11:32:02;99925.91;;;30.00;44.90
21276;BME280;36472;52.170;20.884;2022-08-21T11:34:47;99928.88;;;29.16;47.48
21276;BME280;36472;52.170;20.884;2022-08-21T11:37:42;99925.84;;;29.83;46.97
21276;BME280;36472;52.170;20.884;2022-08-21T11:40:35;99926.88;;;29.58;46.72
21276;BME280;36472;52.170;20.884;2022-08-21T11:43:17;99921.09;;;30.60;44.04
21276;BME280;36472;52.170;20.884;2022-08-21T11:45:52;99926.75;;;30.41;43.82
21276;BME280;36472;52.170;20.884;2022-08-21T11:48:41;99927.31;;;30.02;44.86
21276;BME280;36472;52.170;20.884;2022-08-21T11:51:19;99924.13;;;30.06;44.20
21276;BME280;36472;52.170;20.884;2022-08-21T11:54:04;99923.03;;;29.78;45.28
21276;BME280;36472;52.170;20.884;2022-08-21T11:56:38;99911.06;;;30.02;45.60
21276;BME280;36472;52.170;20.884;2022-08-21T11:59:16;99914.56;;;30.44;43.74
21276;BME280;36472;52.170;20.884;2022-08-21T12:01:51;99920.56;;;29.76;45.37
21276;BME280;36472;52.170;20.884;2022-08-21T12:04:27;99919.34;;;30.25;43.79
21276;BME280;36472;52.170;20.884;2022-08-21T12:07:15;99913.53;;;30.33;43.61
21276;BME280;36472;52.170;20.884;2022-08-21T12:09:55;99924.88;;;29.89;44.99
21276;BME280;36472;52.170;20.884;2022-08-21T12:12:28;99915.00;;;29.59;45.18
21276;BME280;36472;52.170;20.884;2022-08-21T12:15:25;99915.69;;;29.90;43.77
21276;BME280;36472;52.170;20.884;2022-08-21T12:17:59;99916.66;;;29.13;46.58
21276;BME280;36472;52.170;20.884;2022-08-21T12:20:43;99917.94;;;29.58;44.94
21276;BME280;36472;52.170;20.884;2022-08-21T12:23:27;99906.75;;;29.07;47.15
21276;BME280;36472;52.170;20.884;2022-08-21T12:26:25;99908.63;;;29.89;43.64
21276;BME280;36472;52.170;20.884;2022-08-21T12:29:24;99903.19;;;30.30;42.96
21276;BME280;36472;52.170;20.884;2022-08-21T12:32:00;99899.00;;;29.58;44.26
21276;BME280;36472;52.170;20.884;2022-08-21T12:34:35;99908.69;;;30.06;42.79
21276;BME280;36472;52.170;20.884;2022-08-21T12:37:15;99907.34;;;30.20;42.12
21276;BME280;36472;52.170;20.884;2022-08-21T12:39:50;99891.75;;;29.23;45.66
21276;BME280;36472;52.170;20.884;2022-08-21T12:42:31;99904.94;;;29.19;47.66
21276;BME280;36472;52.170;20.884;2022-08-21T12:45:11;99910.94;;;29.33;47.07
21276;BME280;36472;52.170;20.884;2022-08-21T12:47:49;99899.44;;;29.90;44.48
21276;BME280;36472;52.170;20.884;2022-08-21T12:50:26;99903.25;;;29.65;44.99
21276;BME280;36472;52.170;20.884;2022-08-21T12:53:05;99898.34;;;30.32;44.28
21276;BME280;36472;52.170;20.884;2022-08-21T12:55:47;99899.16;;;30.78;43.31
21276;BME280;36472;52.170;20.884;2022-08-21T12:58:19;99905.31;;;29.75;44.42
21276;BME280;36472;52.170;20.884;2022-08-21T13:00:53;99909.72;;;29.53;45.35
21276;BME280;36472;52.170;20.884;2022-08-21T13:03:24;99911.25;;;29.60;45.57
21276;BME280;36472;52.170;20.884;2022-08-21T13:05:53;99901.09;;;29.08;46.88
21276;BME280;36472;52.170;20.884;2022-08-21T13:08:26;99906.25;;;28.86;47.00
21276;BME280;36472;52.170;20.884;2022-08-21T13:11:00;99899.53;;;28.65;46.99
21276;BME280;36472;52.170;20.884;2022-08-21T13:13:48;99896.16;;;28.82;48.34
21276;BME280;36472;52.170;20.884;2022-08-21T13:16:24;99902.09;;;29.26;46.82
21276;BME280;36472;52.170;20.884;2022-08-21T13:19:01;99897.38;;;29.45;44.62
21276;BME280;36472;52.170;20.884;2022-08-21T13:21:35;99901.72;;;29.46;44.23